sensor_id;sensor_type;location;lat;lon;timestamp;P1;durP1;ratioP1;P2;durP2;ratioP2
55931;SDS011;41837;55.700;37.984;2023-04-03T00:00:41;26.05;;;13.50;;
55931;SDS011;41837;55.700;37.984;2023-04-03T00:03:07;30.70;;;13.43;;
55931;SDS011;41837;55.700;37.984;2023-04-03T00:05:34;25.45;;;13.48;;
55931;SDS011;41837;55.700;37.984;2023-04-03T00:08:01;25.45;;;13.07;;
55931;SDS011;41837;55.700;37.984;2023-04-03T00:10:27;24.45;;;13.48;;
55931;SDS011;41837;55.700;37.984;2023-04-03T00:12:54;22.48;;;12.30;;
55931;SDS011;41837;55.700;37.984;2023-04-03T00:15:20;22.30;;;11.88;;
55931;SDS011;41837;55.700;37.984;2023-04-03T00:17:46;22.08;;;12.18;;
55931;SDS011;41837;55.700;37.984;2023-04-03T00:20:12;23.27;;;12.48;;
55931;SDS011;41837;55.700;37.984;2023-04-03T00:22:38;22.77;;;12.73;;
55931;SDS011;41837;55.700;37.984;2023-04-03T00:25:05;24.60;;;12.77;;
55931;SDS011;41837;55.700;37.984;2023-04-03T00:27:31;25.13;;;14.85;;
55931;SDS011;41837;55.700;37.984;2023-04-03T00:29:58;23.70;;;13.27;;
55931;SDS011;41837;55.700;37.984;2023-04-03T00:32:24;24.13;;;12.93;;
55931;SDS011;41837;55.700;37.984;2023-04-03T00:34:50;17.23;;;11.68;;
55931;SDS011;41837;55.700;37.984;2023-04-03T00:37:16;17.92;;;11.00;;
55931;SDS011;41837;55.700;37.984;2023-04-03T00:39:43;21.88;;;12.00;;
55931;SDS011;41837;55.700;37.984;2023-04-03T00:42:09;22.35;;;12.77;;
55931;SDS011;41837;55.700;37.984;2023-04-03T00:47:02;24.05;;;13.23;;
55931;SDS011;41837;55.700;37.984;2023-04-03T00:49:31;19.77;;;11.73;;
55931;SDS011;41837;55.700;37.984;2023-04-03T00:51:58;21.13;;;12.80;;
55931;SDS011;41837;55.700;37.984;2023-04-03T00:54:25;23.45;;;12.63;;
55931;SDS011;41837;55.700;37.984;2023-04-03T00:56:52;22.90;;;11.85;;
55931;SDS011;41837;55.700;37.984;2023-04-03T00:59:25;23.35;;;12.68;;
55931;SDS011;41837;55.700;37.984;2023-04-03T01:04:32;28.67;;;13.32;;
55931;SDS011;41837;55.700;37.984;2023-04-03T01:07:04;29.80;;;13.73;;
55931;SDS011;41837;55.700;37.984;2023-04-03T01:09:31;24.10;;;13.55;;
55931;SDS011;41837;55.700;37.984;2023-04-03T01:12:14;23.52;;;15.23;;
55931;SDS011;41837;55.700;37.984;2023-04-03T01:14:43;25.23;;;14.43;;
55931;SDS011;41837;55.700;37.984;2023-04-03T01:20:11;25.27;;;15.50;;
55931;SDS011;41837;55.700;37.984;2023-04-03T01:25:49;26.92;;;14.73;;
55931;SDS011;41837;55.700;37.984;2023-04-03T01:28:24;28.58;;;14.95;;
55931;SDS011;41837;55.700;37.984;2023-04-03T01:33:35;23.83;;;14.95;;
55931;SDS011;41837;55.700;37.984;2023-04-03T01:36:03;30.52;;;15.57;;
55931;SDS011;41837;55.700;37.984;2023-04-03T01:38:31;26.27;;;15.60;;
55931;SDS011;41837;55.700;37.984;2023-04-03T01:40:58;26.20;;;14.77;;
55931;SDS011;41837;55.700;37.984;2023-04-03T01:43:24;29.63;;;15.45;;
55931;SDS011;41837;55.700;37.984;2023-04-03T01:45:50;29.05;;;15.50;;
55931;SDS011;41837;55.700;37.984;2023-04-03T01:48:17;31.33;;;16.67;;
55931;SDS011;41837;55.700;37.984;2023-04-03T01:50:44;29.77;;;16.15;;
55931;SDS011;41837;55.700;37.984;2023-04-03T01:53:10;29.13;;;16.02;;
55931;SDS011;41837;55.700;37.984;2023-04-03T01:55:36;42.95;;;24.92;;
55931;SDS011;41837;55.700;37.984;2023-04-03T01:58:03;52.65;;;25.77;;
55931;SDS011;41837;55.700;37.984;2023-04-03T02:00:29;53.72;;;26.25;;
55931;SDS011;41837;55.700;37.984;2023-04-03T02:02:55;43.47;;;25.42;;
55931;SDS011;41837;55.700;37.984;2023-04-03T02:05:23;46.95;;;26.38;;
55931;SDS011;41837;55.700;37.984;2023-04-03T02:07:49;49.88;;;27.75;;
55931;SDS011;41837;55.700;37.984;2023-04-03T02:10:15;51.17;;;28.27;;
55931;SDS011;41837;55.700;37.984;2023-04-03T02:12:45;45.40;;;26.10;;
55931;SDS011;41837;55.700;37.984;2023-04-03T02:15:11;40.83;;;22.85;;
55931;SDS011;41837;55.700;37.984;2023-04-03T02:17:38;38.92;;;21.60;;
55931;SDS011;41837;55.700;37.984;2023-04-03T02:20:04;43.47;;;23.15;;
55931;SDS011;41837;55.700;37.984;2023-04-03T02:22:32;44.83;;;25.58;;
55931;SDS011;41837;55.700;37.984;2023-04-03T02:24:58;46.45;;;24.15;;
55931;SDS011;41837;55.700;37.984;2023-04-03T02:27:25;51.97;;;28.33;;
55931;SDS011;41837;55.700;37.984;2023-04-03T02:29:51;54.97;;;27.20;;
55931;SDS011;41837;55.700;37.984;2023-04-03T02:32:17;52.90;;;25.33;;
55931;SDS011;41837;55.700;37.984;2023-04-03T02:34:44;52.47;;;25.05;;
55931;SDS011;41837;55.700;37.984;2023-04-03T02:37:12;46.58;;;23.48;;
55931;SDS011;41837;55.700;37.984;2023-04-03T02:39:38;44.53;;;22.80;;
55931;SDS011;41837;55.700;37.984;2023-04-03T02:42:05;52.22;;;23.92;;
55931;SDS011;41837;55.700;37.984;2023-04-03T02:44:32;50.08;;;24.00;;
55931;SDS011;41837;55.700;37.984;2023-04-03T02:46:59;50.28;;;25.23;;
55931;SDS011;41837;55.700;37.984;2023-04-03T02:49:25;44.47;;;22.48;;
55931;SDS011;41837;55.700;37.984;2023-04-03T02:51:51;38.97;;;22.92;;
55931;SDS011;41837;55.700;37.984;2023-04-03T02:54:17;43.45;;;24.35;;
55931;SDS011;41837;55.700;37.984;2023-04-03T02:56:49;48.67;;;23.48;;
55931;SDS011;41837;55.700;37.984;2023-04-03T02:59:15;47.25;;;25.00;;
55931;SDS011;41837;55.700;37.984;2023-04-03T03:01:42;48.55;;;26.75;;
55931;SDS011;41837;55.700;37.984;2023-04-03T03:04:09;48.22;;;23.33;;
55931;SDS011;41837;55.700;37.984;2023-04-03T03:06:35;51.28;;;22.73;;
55931;SDS011;41837;55.700;37.984;2023-04-03T03:09:02;42.38;;;21.45;;
55931;SDS011;41837;55.700;37.984;2023-04-03T03:11:29;43.47;;;21.27;;
55931;SDS011;41837;55.700;37.984;2023-04-03T03:13:56;41.75;;;20.33;;
55931;SDS011;41837;55.700;37.984;2023-04-03T03:16:25;38.55;;;19.40;;
55931;SDS011;41837;55.700;37.984;2023-04-03T03:18:51;39.80;;;20.75;;
55931;SDS011;41837;55.700;37.984;2023-04-03T03:21:17;43.03;;;21.52;;
55931;SDS011;41837;55.700;37.984;2023-04-03T03:23:44;39.10;;;19.77;;
55931;SDS011;41837;55.700;37.984;2023-04-03T03:26:10;41.95;;;21.25;;
55931;SDS011;41837;55.700;37.984;2023-04-03T03:28:37;46.42;;;20.88;;
55931;SDS011;41837;55.700;37.984;2023-04-03T03:31:05;42.17;;;20.50;;
55931;SDS011;41837;55.700;37.984;2023-04-03T03:33:33;41.20;;;19.30;;
55931;SDS011;41837;55.700;37.984;2023-04-03T03:35:59;41.08;;;20.23;;
55931;SDS011;41837;55.700;37.984;2023-04-03T03:38:26;42.03;;;20.73;;
55931;SDS011;41837;55.700;37.984;2023-04-03T03:40:53;39.35;;;19.23;;
55931;SDS011;41837;55.700;37.984;2023-04-03T03:43:20;42.72;;;22.05;;
55931;SDS011;41837;55.700;37.984;2023-04-03T03:45:52;48.75;;;21.15;;
55931;SDS011;41837;55.700;37.984;2023-04-03T03:48:19;48.13;;;20.08;;
55931;SDS011;41837;55.700;37.984;2023-04-03T03:50:47;40.55;;;20.92;;
55931;SDS011;41837;55.700;37.984;2023-04-03T03:53:16;40.50;;;19.98;;
55931;SDS011;41837;55.700;37.984;2023-04-03T03:55:43;45.28;;;20.48;;
55931;SDS011;41837;55.700;37.984;2023-04-03T03:58:09;46.05;;;20.55;;
55931;SDS011;41837;55.700;37.984;2023-04-03T04:00:36;40.80;;;18.35;;
55931;SDS011;41837;55.700;37.984;2023-04-03T04:03:03;38.00;;;16.92;;
55931;SDS011;41837;55.700;37.984;2023-04-03T04:05:30;33.00;;;16.65;;
55931;SDS011;41837;55.700;37.984;2023-04-03T04:07:59;32.70;;;14.95;;
55931;SDS011;41837;55.700;37.984;2023-04-03T04:10:26;30.92;;;14.70;;
55931;SDS011;41837;55.700;37.984;2023-04-03T04:12:52;31.40;;;15.15;;
55931;SDS011;41837;55.700;37.984;2023-04-03T04:15:22;36.42;;;16.63;;
55931;SDS011;41837;55.700;37.984;2023-04-03T04:17:52;45.13;;;18.75;;
55931;SDS011;41837;55.700;37.984;2023-04-03T04:20:19;40.40;;;18.95;;
55931;SDS011;41837;55.700;37.984;2023-04-03T04:22:47;43.13;;;21.20;;
55931;SDS011;41837;55.700;37.984;2023-04-03T04:25:13;39.75;;;18.77;;
55931;SDS011;41837;55.700;37.984;2023-04-03T04:27:40;43.45;;;17.98;;
55931;SDS011;41837;55.700;37.984;2023-04-03T04:30:07;30.55;;;15.38;;
55931;SDS011;41837;55.700;37.984;2023-04-03T04:32:34;33.50;;;14.57;;
55931;SDS011;41837;55.700;37.984;2023-04-03T04:35:01;32.00;;;14.07;;
55931;SDS011;41837;55.700;37.984;2023-04-03T04:37:31;23.23;;;13.57;;
55931;SDS011;41837;55.700;37.984;2023-04-03T04:39:58;24.90;;;12.00;;
55931;SDS011;41837;55.700;37.984;2023-04-03T04:42:24;23.33;;;11.35;;
55931;SDS011;41837;55.700;37.984;2023-04-03T04:44:51;20.38;;;10.40;;
55931;SDS011;41837;55.700;37.984;2023-04-03T04:47:18;25.90;;;12.07;;
55931;SDS011;41837;55.700;37.984;2023-04-03T04:49:44;27.00;;;11.30;;
55931;SDS011;41837;55.700;37.984;2023-04-03T04:52:11;21.60;;;11.38;;
55931;SDS011;41837;55.700;37.984;2023-04-03T04:54:39;20.85;;;11.30;;
55931;SDS011;41837;55.700;37.984;2023-04-03T04:57:05;25.92;;;10.77;;
55931;SDS011;41837;55.700;37.984;2023-04-03T04:59:32;20.95;;;10.20;;
55931;SDS011;41837;55.700;37.984;2023-04-03T05:01:58;20.17;;;9.35;;
55931;SDS011;41837;55.700;37.984;2023-04-03T05:04:25;21.75;;;9.98;;
55931;SDS011;41837;55.700;37.984;2023-04-03T05:06:58;25.17;;;10.63;;
55931;SDS011;41837;55.700;37.984;2023-04-03T05:09:27;28.65;;;10.82;;
55931;SDS011;41837;55.700;37.984;2023-04-03T05:11:54;19.30;;;10.73;;
55931;SDS011;41837;55.700;37.984;2023-04-03T05:14:24;22.77;;;11.13;;
55931;SDS011;41837;55.700;37.984;2023-04-03T05:16:52;26.55;;;11.73;;
55931;SDS011;41837;55.700;37.984;2023-04-03T05:19:21;26.83;;;12.15;;
55931;SDS011;41837;55.700;37.984;2023-04-03T05:22:01;26.48;;;11.20;;
55931;SDS011;41837;55.700;37.984;2023-04-03T05:24:28;23.67;;;11.68;;
55931;SDS011;41837;55.700;37.984;2023-04-03T05:26:54;26.27;;;11.93;;
55931;SDS011;41837;55.700;37.984;2023-04-03T05:29:21;23.55;;;12.07;;
55931;SDS011;41837;55.700;37.984;2023-04-03T05:31:49;33.22;;;12.18;;
55931;SDS011;41837;55.700;37.984;2023-04-03T05:34:16;25.00;;;11.95;;
55931;SDS011;41837;55.700;37.984;2023-04-03T05:36:43;34.22;;;12.63;;
55931;SDS011;41837;55.700;37.984;2023-04-03T05:39:36;28.95;;;12.93;;
55931;SDS011;41837;55.700;37.984;2023-04-03T05:42:05;25.92;;;11.32;;
55931;SDS011;41837;55.700;37.984;2023-04-03T05:44:44;26.90;;;11.98;;
55931;SDS011;41837;55.700;37.984;2023-04-03T05:47:13;21.63;;;11.75;;
55931;SDS011;41837;55.700;37.984;2023-04-03T05:49:51;25.17;;;11.48;;
55931;SDS011;41837;55.700;37.984;2023-04-03T05:52:29;34.88;;;11.13;;
55931;SDS011;41837;55.700;37.984;2023-04-03T05:54:57;22.45;;;10.18;;
55931;SDS011;41837;55.700;37.984;2023-04-03T05:57:26;18.70;;;10.63;;
55931;SDS011;41837;55.700;37.984;2023-04-03T05:59:52;24.25;;;10.18;;
55931;SDS011;41837;55.700;37.984;2023-04-03T06:02:21;18.48;;;10.10;;
55931;SDS011;41837;55.700;37.984;2023-04-03T06:04:50;23.38;;;11.25;;
55931;SDS011;41837;55.700;37.984;2023-04-03T06:07:18;21.98;;;11.48;;
55931;SDS011;41837;55.700;37.984;2023-04-03T06:09:49;22.25;;;11.65;;
55931;SDS011;41837;55.700;37.984;2023-04-03T06:12:19;23.45;;;12.43;;
55931;SDS011;41837;55.700;37.984;2023-04-03T06:14:46;22.20;;;12.23;;
55931;SDS011;41837;55.700;37.984;2023-04-03T06:17:14;19.45;;;11.38;;
55931;SDS011;41837;55.700;37.984;2023-04-03T06:19:41;25.08;;;12.65;;
55931;SDS011;41837;55.700;37.984;2023-04-03T06:22:08;21.10;;;10.82;;
55931;SDS011;41837;55.700;37.984;2023-04-03T06:24:35;22.02;;;10.27;;
55931;SDS011;41837;55.700;37.984;2023-04-03T06:27:01;22.98;;;10.63;;
55931;SDS011;41837;55.700;37.984;2023-04-03T06:29:27;27.08;;;11.10;;
55931;SDS011;41837;55.700;37.984;2023-04-03T06:31:53;18.50;;;9.95;;
55931;SDS011;41837;55.700;37.984;2023-04-03T06:34:19;25.40;;;11.90;;
55931;SDS011;41837;55.700;37.984;2023-04-03T06:36:46;25.63;;;13.05;;
55931;SDS011;41837;55.700;37.984;2023-04-03T06:39:15;24.42;;;12.77;;
55931;SDS011;41837;55.700;37.984;2023-04-03T06:41:43;26.83;;;13.88;;
55931;SDS011;41837;55.700;37.984;2023-04-03T06:44:09;33.38;;;17.63;;
55931;SDS011;41837;55.700;37.984;2023-04-03T06:46:37;34.60;;;17.98;;
55931;SDS011;41837;55.700;37.984;2023-04-03T06:49:05;31.25;;;18.05;;
55931;SDS011;41837;55.700;37.984;2023-04-03T06:51:33;32.95;;;19.00;;
55931;SDS011;41837;55.700;37.984;2023-04-03T06:53:59;30.48;;;18.60;;
55931;SDS011;41837;55.700;37.984;2023-04-03T06:56:27;30.42;;;16.55;;
55931;SDS011;41837;55.700;37.984;2023-04-03T06:58:54;34.17;;;17.15;;
55931;SDS011;41837;55.700;37.984;2023-04-03T07:01:23;34.15;;;19.73;;
55931;SDS011;41837;55.700;37.984;2023-04-03T07:03:51;29.08;;;17.60;;
55931;SDS011;41837;55.700;37.984;2023-04-03T07:06:18;30.83;;;17.42;;
55931;SDS011;41837;55.700;37.984;2023-04-03T07:08:45;29.92;;;14.90;;
55931;SDS011;41837;55.700;37.984;2023-04-03T07:11:11;28.95;;;14.80;;
55931;SDS011;41837;55.700;37.984;2023-04-03T07:13:38;23.92;;;13.52;;
55931;SDS011;41837;55.700;37.984;2023-04-03T07:16:05;27.17;;;13.35;;
55931;SDS011;41837;55.700;37.984;2023-04-03T07:18:32;24.13;;;13.68;;
55931;SDS011;41837;55.700;37.984;2023-04-03T07:20:59;23.60;;;11.70;;
55931;SDS011;41837;55.700;37.984;2023-04-03T07:23:25;23.55;;;12.35;;
55931;SDS011;41837;55.700;37.984;2023-04-03T07:25:52;25.65;;;12.07;;
55931;SDS011;41837;55.700;37.984;2023-04-03T07:28:19;23.83;;;11.55;;
55931;SDS011;41837;55.700;37.984;2023-04-03T07:30:49;21.17;;;10.93;;
55931;SDS011;41837;55.700;37.984;2023-04-03T07:33:21;19.27;;;11.07;;
55931;SDS011;41837;55.700;37.984;2023-04-03T07:35:48;26.25;;;10.02;;
55931;SDS011;41837;55.700;37.984;2023-04-03T07:38:15;21.23;;;9.70;;
55931;SDS011;41837;55.700;37.984;2023-04-03T07:40:45;21.27;;;10.68;;
55931;SDS011;41837;55.700;37.984;2023-04-03T07:43:14;17.00;;;10.38;;
55931;SDS011;41837;55.700;37.984;2023-04-03T07:45:41;17.17;;;10.80;;
55931;SDS011;41837;55.700;37.984;2023-04-03T07:48:12;20.38;;;11.82;;
55931;SDS011;41837;55.700;37.984;2023-04-03T07:50:42;24.92;;;11.65;;
55931;SDS011;41837;55.700;37.984;2023-04-03T07:53:09;22.00;;;12.43;;
55931;SDS011;41837;55.700;37.984;2023-04-03T07:55:35;28.50;;;13.30;;
55931;SDS011;41837;55.700;37.984;2023-04-03T07:58:12;28.85;;;14.05;;
55931;SDS011;41837;55.700;37.984;2023-04-03T08:00:40;39.17;;;14.63;;
55931;SDS011;41837;55.700;37.984;2023-04-03T08:03:06;34.55;;;15.13;;
55931;SDS011;41837;55.700;37.984;2023-04-03T08:05:39;36.85;;;15.77;;
55931;SDS011;41837;55.700;37.984;2023-04-03T08:08:07;29.92;;;15.32;;
55931;SDS011;41837;55.700;37.984;2023-04-03T08:10:34;36.35;;;15.25;;
55931;SDS011;41837;55.700;37.984;2023-04-03T08:13:01;34.05;;;18.08;;
55931;SDS011;41837;55.700;37.984;2023-04-03T08:15:27;33.22;;;15.85;;
55931;SDS011;41837;55.700;37.984;2023-04-03T08:17:53;24.20;;;14.18;;
55931;SDS011;41837;55.700;37.984;2023-04-03T08:20:20;29.92;;;16.65;;
55931;SDS011;41837;55.700;37.984;2023-04-03T08:22:46;26.20;;;14.75;;
55931;SDS011;41837;55.700;37.984;2023-04-03T08:25:12;32.13;;;14.73;;
55931;SDS011;41837;55.700;37.984;2023-04-03T08:27:38;26.40;;;13.75;;
55931;SDS011;41837;55.700;37.984;2023-04-03T08:30:05;27.25;;;14.10;;
55931;SDS011;41837;55.700;37.984;2023-04-03T08:32:33;26.08;;;14.32;;
55931;SDS011;41837;55.700;37.984;2023-04-03T08:35:02;29.58;;;16.20;;
55931;SDS011;41837;55.700;37.984;2023-04-03T08:37:29;30.27;;;13.05;;
55931;SDS011;41837;55.700;37.984;2023-04-03T08:39:56;22.73;;;12.52;;
55931;SDS011;41837;55.700;37.984;2023-04-03T08:42:36;28.85;;;12.77;;
55931;SDS011;41837;55.700;37.984;2023-04-03T08:45:12;22.17;;;11.13;;
55931;SDS011;41837;55.700;37.984;2023-04-03T08:50:20;19.23;;;9.75;;
55931;SDS011;41837;55.700;37.984;2023-04-03T08:52:59;24.15;;;9.73;;
55931;SDS011;41837;55.700;37.984;2023-04-03T08:55:34;19.85;;;9.00;;
55931;SDS011;41837;55.700;37.984;2023-04-03T08:58:07;24.85;;;9.50;;
55931;SDS011;41837;55.700;37.984;2023-04-03T09:03:21;22.42;;;10.93;;
55931;SDS011;41837;55.700;37.984;2023-04-03T09:08:40;21.77;;;10.55;;
55931;SDS011;41837;55.700;37.984;2023-04-03T09:11:25;19.27;;;9.68;;
55931;SDS011;41837;55.700;37.984;2023-04-03T09:16:59;20.02;;;9.90;;
55931;SDS011;41837;55.700;37.984;2023-04-03T09:21:57;18.27;;;8.73;;
55931;SDS011;41837;55.700;37.984;2023-04-03T09:24:26;21.55;;;9.60;;
55931;SDS011;41837;55.700;37.984;2023-04-03T09:27:04;15.57;;;8.50;;
55931;SDS011;41837;55.700;37.984;2023-04-03T09:29:35;19.88;;;8.43;;
55931;SDS011;41837;55.700;37.984;2023-04-03T09:35:16;17.27;;;8.25;;
55931;SDS011;41837;55.700;37.984;2023-04-03T09:37:51;14.68;;;7.60;;
55931;SDS011;41837;55.700;37.984;2023-04-03T09:42:55;14.10;;;7.40;;
55931;SDS011;41837;55.700;37.984;2023-04-03T09:45:24;17.83;;;8.25;;
55931;SDS011;41837;55.700;37.984;2023-04-03T09:50:34;13.98;;;7.65;;
55931;SDS011;41837;55.700;37.984;2023-04-03T09:53:05;14.95;;;7.32;;
55931;SDS011;41837;55.700;37.984;2023-04-03T09:55:33;14.30;;;7.28;;
55931;SDS011;41837;55.700;37.984;2023-04-03T09:58:22;13.98;;;7.72;;
55931;SDS011;41837;55.700;37.984;2023-04-03T10:00:58;17.45;;;8.63;;
55931;SDS011;41837;55.700;37.984;2023-04-03T10:03:30;23.88;;;9.25;;
55931;SDS011;41837;55.700;37.984;2023-04-03T10:06:00;15.05;;;6.97;;
55931;SDS011;41837;55.700;37.984;2023-04-03T10:08:31;17.33;;;8.23;;
55931;SDS011;41837;55.700;37.984;2023-04-03T10:13:55;15.68;;;7.88;;
55931;SDS011;41837;55.700;37.984;2023-04-03T10:21:59;15.68;;;8.48;;
55931;SDS011;41837;55.700;37.984;2023-04-03T10:24:59;17.73;;;8.85;;
55931;SDS011;41837;55.700;37.984;2023-04-03T10:27:44;15.70;;;8.00;;
55931;SDS011;41837;55.700;37.984;2023-04-03T10:30:42;12.68;;;8.32;;
55931;SDS011;41837;55.700;37.984;2023-04-03T10:44:35;16.35;;;8.80;;
55931;SDS011;41837;55.700;37.984;2023-04-03T10:52:41;27.30;;;10.68;;
55931;SDS011;41837;55.700;37.984;2023-04-03T10:57:48;18.80;;;9.73;;
55931;SDS011;41837;55.700;37.984;2023-04-03T11:00:20;16.42;;;9.82;;
55931;SDS011;41837;55.700;37.984;2023-04-03T11:02:54;20.35;;;10.60;;
55931;SDS011;41837;55.700;37.984;2023-04-03T11:05:33;21.25;;;9.18;;
55931;SDS011;41837;55.700;37.984;2023-04-03T11:11:38;15.10;;;8.13;;
55931;SDS011;41837;55.700;37.984;2023-04-03T11:14:09;14.88;;;7.65;;
55931;SDS011;41837;55.700;37.984;2023-04-03T11:16:48;15.68;;;8.00;;
55931;SDS011;41837;55.700;37.984;2023-04-03T11:19:48;21.75;;;7.88;;
55931;SDS011;41837;55.700;37.984;2023-04-03T11:22:31;19.58;;;8.10;;
55931;SDS011;41837;55.700;37.984;2023-04-03T11:27:58;14.10;;;5.80;;
55931;SDS011;41837;55.700;37.984;2023-04-03T11:33:11;17.27;;;7.25;;
55931;SDS011;41837;55.700;37.984;2023-04-03T11:35:49;19.50;;;7.10;;
55931;SDS011;41837;55.700;37.984;2023-04-03T11:38:24;16.45;;;7.43;;
55931;SDS011;41837;55.700;37.984;2023-04-03T11:40:54;10.93;;;6.03;;
55931;SDS011;41837;55.700;37.984;2023-04-03T11:45:55;18.10;;;6.88;;
55931;SDS011;41837;55.700;37.984;2023-04-03T11:51:00;12.10;;;6.13;;
55931;SDS011;41837;55.700;37.984;2023-04-03T11:53:34;13.57;;;7.28;;
55931;SDS011;41837;55.700;37.984;2023-04-03T11:58:30;17.33;;;6.90;;
55931;SDS011;41837;55.700;37.984;2023-04-03T12:01:04;28.17;;;11.40;;
55931;SDS011;41837;55.700;37.984;2023-04-03T12:16:27;19.95;;;7.88;;
55931;SDS011;41837;55.700;37.984;2023-04-03T12:29:21;15.50;;;7.70;;
55931;SDS011;41837;55.700;37.984;2023-04-03T12:32:10;16.40;;;7.28;;
55931;SDS011;41837;55.700;37.984;2023-04-03T12:37:46;16.90;;;6.53;;
55931;SDS011;41837;55.700;37.984;2023-04-03T12:40:43;15.50;;;6.70;;
55931;SDS011;41837;55.700;37.984;2023-04-03T12:46:02;29.42;;;8.10;;
55931;SDS011;41837;55.700;37.984;2023-04-03T12:48:54;12.07;;;6.15;;
55931;SDS011;41837;55.700;37.984;2023-04-03T12:51:37;10.73;;;6.20;;
55931;SDS011;41837;55.700;37.984;2023-04-03T12:54:16;9.98;;;6.82;;
55931;SDS011;41837;55.700;37.984;2023-04-03T12:56:48;16.42;;;7.60;;
55931;SDS011;41837;55.700;37.984;2023-04-03T13:01:59;16.85;;;7.85;;
55931;SDS011;41837;55.700;37.984;2023-04-03T13:06:53;20.58;;;6.90;;
55931;SDS011;41837;55.700;37.984;2023-04-03T13:09:21;20.50;;;7.28;;
55931;SDS011;41837;55.700;37.984;2023-04-03T13:12:02;20.38;;;7.50;;
55931;SDS011;41837;55.700;37.984;2023-04-03T13:14:35;14.98;;;6.43;;
55931;SDS011;41837;55.700;37.984;2023-04-03T13:17:15;12.02;;;5.57;;
55931;SDS011;41837;55.700;37.984;2023-04-03T13:19:42;14.65;;;5.80;;
55931;SDS011;41837;55.700;37.984;2023-04-03T13:22:19;14.63;;;6.03;;
55931;SDS011;41837;55.700;37.984;2023-04-03T13:24:52;10.70;;;5.47;;
55931;SDS011;41837;55.700;37.984;2023-04-03T13:27:20;13.82;;;7.22;;
55931;SDS011;41837;55.700;37.984;2023-04-03T13:29:51;13.50;;;6.72;;
55931;SDS011;41837;55.700;37.984;2023-04-03T13:32:21;15.45;;;6.97;;
55931;SDS011;41837;55.700;37.984;2023-04-03T13:34:50;12.02;;;6.35;;
55931;SDS011;41837;55.700;37.984;2023-04-03T13:37:21;10.20;;;5.50;;
55931;SDS011;41837;55.700;37.984;2023-04-03T13:42:35;15.50;;;7.00;;
55931;SDS011;41837;55.700;37.984;2023-04-03T13:45:24;14.43;;;6.80;;
55931;SDS011;41837;55.700;37.984;2023-04-03T13:48:06;14.98;;;7.50;;
55931;SDS011;41837;55.700;37.984;2023-04-03T13:51:00;13.52;;;7.25;;
55931;SDS011;41837;55.700;37.984;2023-04-03T13:53:31;12.50;;;7.45;;
55931;SDS011;41837;55.700;37.984;2023-04-03T13:56:00;15.15;;;6.93;;
55931;SDS011;41837;55.700;37.984;2023-04-03T13:58:33;11.15;;;6.60;;
55931;SDS011;41837;55.700;37.984;2023-04-03T14:01:20;14.40;;;7.43;;
55931;SDS011;41837;55.700;37.984;2023-04-03T14:03:56;16.42;;;7.25;;
55931;SDS011;41837;55.700;37.984;2023-04-03T14:06:24;15.88;;;7.85;;
55931;SDS011;41837;55.700;37.984;2023-04-03T14:08:51;16.42;;;7.57;;
55931;SDS011;41837;55.700;37.984;2023-04-03T14:11:21;20.23;;;7.55;;
55931;SDS011;41837;55.700;37.984;2023-04-03T14:13:50;21.55;;;8.90;;
55931;SDS011;41837;55.700;37.984;2023-04-03T14:16:21;19.00;;;9.23;;
55931;SDS011;41837;55.700;37.984;2023-04-03T14:18:51;23.20;;;10.90;;
55931;SDS011;41837;55.700;37.984;2023-04-03T14:21:19;21.58;;;10.55;;
55931;SDS011;41837;55.700;37.984;2023-04-03T14:23:47;20.02;;;9.77;;
55931;SDS011;41837;55.700;37.984;2023-04-03T14:26:16;26.40;;;10.30;;
55931;SDS011;41837;55.700;37.984;2023-04-03T14:28:44;23.38;;;9.23;;
55931;SDS011;41837;55.700;37.984;2023-04-03T14:31:16;20.90;;;8.93;;
55931;SDS011;41837;55.700;37.984;2023-04-03T14:33:43;23.00;;;11.04;;
55931;SDS011;41837;55.700;37.984;2023-04-03T14:36:12;24.65;;;10.52;;
55931;SDS011;41837;55.700;37.984;2023-04-03T14:38:40;19.10;;;8.85;;
55931;SDS011;41837;55.700;37.984;2023-04-03T14:41:07;19.23;;;9.98;;
55931;SDS011;41837;55.700;37.984;2023-04-03T14:43:38;22.38;;;9.30;;
55931;SDS011;41837;55.700;37.984;2023-04-03T14:46:04;19.23;;;10.90;;
55931;SDS011;41837;55.700;37.984;2023-04-03T14:48:34;18.42;;;10.52;;
55931;SDS011;41837;55.700;37.984;2023-04-03T14:51:00;21.83;;;10.00;;
55931;SDS011;41837;55.700;37.984;2023-04-03T14:53:26;22.08;;;10.55;;
55931;SDS011;41837;55.700;37.984;2023-04-03T14:55:55;15.98;;;9.15;;
55931;SDS011;41837;55.700;37.984;2023-04-03T14:58:22;14.23;;;8.77;;
55931;SDS011;41837;55.700;37.984;2023-04-03T15:00:48;18.70;;;9.18;;
55931;SDS011;41837;55.700;37.984;2023-04-03T15:03:16;19.65;;;8.13;;
55931;SDS011;41837;55.700;37.984;2023-04-03T15:05:45;12.52;;;7.32;;
55931;SDS011;41837;55.700;37.984;2023-04-03T15:08:34;13.57;;;7.05;;
55931;SDS011;41837;55.700;37.984;2023-04-03T15:10:59;14.90;;;8.13;;
55931;SDS011;41837;55.700;37.984;2023-04-03T15:13:26;12.43;;;6.10;;
55931;SDS011;41837;55.700;37.984;2023-04-03T15:15:52;12.10;;;6.10;;
55931;SDS011;41837;55.700;37.984;2023-04-03T15:18:22;10.57;;;5.75;;
55931;SDS011;41837;55.700;37.984;2023-04-03T15:20:52;14.38;;;6.10;;
55931;SDS011;41837;55.700;37.984;2023-04-03T15:23:19;16.98;;;6.50;;
55931;SDS011;41837;55.700;37.984;2023-04-03T15:25:46;13.25;;;6.53;;
55931;SDS011;41837;55.700;37.984;2023-04-03T15:28:18;16.88;;;6.57;;
55931;SDS011;41837;55.700;37.984;2023-04-03T15:30:56;12.48;;;6.32;;
55931;SDS011;41837;55.700;37.984;2023-04-03T15:33:22;16.67;;;6.35;;
55931;SDS011;41837;55.700;37.984;2023-04-03T15:35:49;14.63;;;6.28;;
55931;SDS011;41837;55.700;37.984;2023-04-03T15:38:15;15.20;;;5.70;;
55931;SDS011;41837;55.700;37.984;2023-04-03T15:40:41;13.13;;;5.85;;
55931;SDS011;41837;55.700;37.984;2023-04-03T15:43:09;13.80;;;6.50;;
55931;SDS011;41837;55.700;37.984;2023-04-03T15:45:35;16.50;;;6.35;;
55931;SDS011;41837;55.700;37.984;2023-04-03T15:48:02;14.70;;;6.07;;
55931;SDS011;41837;55.700;37.984;2023-04-03T15:50:31;23.88;;;7.10;;
55931;SDS011;41837;55.700;37.984;2023-04-03T15:52:58;20.58;;;6.50;;
55931;SDS011;41837;55.700;37.984;2023-04-03T15:55:25;16.13;;;6.90;;
55931;SDS011;41837;55.700;37.984;2023-04-03T15:57:52;23.63;;;11.10;;
55931;SDS011;41837;55.700;37.984;2023-04-03T16:00:19;26.08;;;11.10;;
55931;SDS011;41837;55.700;37.984;2023-04-03T16:02:46;35.85;;;15.75;;
55931;SDS011;41837;55.700;37.984;2023-04-03T16:05:14;46.25;;;24.00;;
55931;SDS011;41837;55.700;37.984;2023-04-03T16:07:42;47.90;;;23.85;;
55931;SDS011;41837;55.700;37.984;2023-04-03T16:10:11;51.30;;;24.00;;
55931;SDS011;41837;55.700;37.984;2023-04-03T16:12:39;44.42;;;23.55;;
55931;SDS011;41837;55.700;37.984;2023-04-03T16:15:05;39.00;;;21.92;;
55931;SDS011;41837;55.700;37.984;2023-04-03T16:17:32;38.53;;;20.40;;
55931;SDS011;41837;55.700;37.984;2023-04-03T16:20:00;44.88;;;21.27;;
55931;SDS011;41837;55.700;37.984;2023-04-03T16:22:29;34.40;;;18.40;;
55931;SDS011;41837;55.700;37.984;2023-04-03T16:24:56;35.25;;;17.38;;